Terminal Aerodrome Forecast
Issued by NWS Cleveland, OH

Home | Current Version | Previous Version | Graphics & Text | Print | Product List | Glossary On
Versions: 1 2 3 4 5 6 7 8 9 10 11 12 13 14 15
000
FTUS41 KCLE 241602 AAA
TAFTOL
TAF AMD
KTOL 241602Z 2416/2512 34010G16KT P6SM BKN028
     FM241800 34010G18KT P6SM BKN035
     FM250100 01005KT P6SM SCT035=

USA.gov is the U.S. government's official web portal to all federal, state and local government web resources and services.